createdAt,value
2023-03-28T00:01:00.518Z,99843.41
2023-03-28T00:02:22.908Z,99837.00
2023-03-28T00:03:45.256Z,99839.09
2023-03-28T00:05:08.102Z,99837.56
2023-03-28T00:06:31.773Z,99842.03
2023-03-28T00:07:55.192Z,99858.69
2023-03-28T00:09:18.146Z,99838.81
2023-03-28T00:10:39.464Z,99838.38
2023-03-28T00:12:01.781Z,99848.34
2023-03-28T00:13:29.984Z,99838.66
2023-03-28T00:14:52.335Z,99835.47
2023-03-28T00:16:15.468Z,99834.34
2023-03-28T00:17:37.383Z,99838.56
2023-03-28T00:19:01.100Z,99835.34
2023-03-28T00:20:23.800Z,99826.06
2023-03-28T00:21:48.886Z,99825.81
2023-03-28T00:23:12.271Z,99830.84
2023-03-28T00:24:35.526Z,99827.63
2023-03-28T00:25:57.468Z,99833.19
2023-03-28T00:27:23.035Z,99832.09
2023-03-28T00:28:46.342Z,99829.31
2023-03-28T00:30:09.899Z,99832.09
2023-03-28T00:31:35.232Z,99819.91
2023-03-28T00:32:57.800Z,99818.97
2023-03-28T00:34:21.334Z,99841.03
2023-03-28T00:35:44.252Z,99833.78
2023-03-28T00:37:06.664Z,99823.41
2023-03-28T00:38:28.413Z,99823.41
2023-03-28T00:39:51.222Z,99832.91
2023-03-28T00:41:16.242Z,99815.72
2023-03-28T00:42:42.395Z,99820.19
2023-03-28T00:44:38.454Z,99831.25
2023-03-28T00:46:09.070Z,99807.44
2023-03-28T00:47:44.059Z,99819.03
2023-03-28T00:49:12.511Z,99824.78
2023-03-28T00:50:37.199Z,99825.63
2023-03-28T00:52:32.733Z,99808.53
2023-03-28T00:54:00.364Z,99835.97
2023-03-28T00:55:28.753Z,99817.22
2023-03-28T00:56:55.986Z,99827.44
2023-03-28T00:58:23.481Z,99842.13
2023-03-28T00:59:48.624Z,99819.03
2023-03-28T01:01:15.958Z,99823.94
2023-03-28T01:02:37.476Z,99834.28
2023-03-28T01:04:03.373Z,99819.75
2023-03-28T01:05:31.702Z,99822.41
2023-03-28T01:06:59.109Z,99823.34
2023-03-28T01:08:27.392Z,99820.59
2023-03-28T01:09:52.358Z,99825.06
2023-03-28T01:11:16.207Z,99835.84
2023-03-28T01:12:38.058Z,99805.88
2023-03-28T01:14:02.385Z,99818.66
2023-03-28T01:15:24.608Z,99814.28
2023-03-28T01:16:58.797Z,99826.78
2023-03-28T01:18:28.460Z,99821.91
2023-03-28T01:20:06.401Z,99817.19
2023-03-28T01:21:55.041Z,99809.47
2023-03-28T01:23:51.773Z,99802.38
2023-03-28T01:25:53.891Z,99818.34
2023-03-28T01:27:20.987Z,99820.84
2023-03-28T01:29:13.097Z,99824.22
2023-03-28T01:31:06.213Z,99811.06
2023-03-28T01:33:34.398Z,99823.66
2023-03-28T01:35:38.183Z,99822.44
2023-03-28T01:37:16.259Z,99800.88
2023-03-28T01:38:51.843Z,99815.19
2023-03-28T01:40:39.915Z,99802.56
2023-03-28T01:42:11.992Z,99797.81
2023-03-28T01:43:42.989Z,99812.25
2023-03-28T01:45:15.524Z,99808.63
2023-03-28T01:46:41.709Z,99798.97
2023-03-28T01:48:12.393Z,99788.63
2023-03-28T01:49:40.461Z,99804.00
2023-03-28T01:51:10.460Z,99804.44
2023-03-28T01:52:39.212Z,99806.25
2023-03-28T01:54:05.512Z,99805.84
2023-03-28T01:55:30.474Z,99797.16
2023-03-28T01:57:05.246Z,99791.03
2023-03-28T01:58:42.019Z,99802.50
2023-03-28T02:00:19.808Z,99801.97
2023-03-28T02:02:07.722Z,99795.25
2023-03-28T02:03:35.206Z,99804.22
2023-03-28T02:05:08.067Z,99794.69
2023-03-28T02:06:36.136Z,99790.38
2023-03-28T02:08:03.744Z,99793.16
2023-03-28T02:09:39.354Z,99805.50
2023-03-28T02:11:07.872Z,99801.13
2023-03-28T02:12:48.563Z,99800.19
2023-03-28T02:14:37.483Z,99786.47
2023-03-28T02:16:23.387Z,99790.66
2023-03-28T02:18:11.440Z,99792.47
2023-03-28T02:20:09.115Z,99784.34
2023-03-28T02:21:55.228Z,99780.31
2023-03-28T02:23:34.416Z,99785.72
2023-03-28T02:25:19.830Z,99783.78
2023-03-28T02:27:24.015Z,99800.16
2023-03-28T02:29:08.866Z,99790.34
2023-03-28T02:30:45.365Z,99789.94
2023-03-28T02:32:08.910Z,99797.91
2023-03-28T02:33:37.953Z,99794.53
2023-03-28T02:35:02.573Z,99774.69
2023-03-28T02:36:41.295Z,99794.53
2023-03-28T02:38:13.174Z,99802.81
2023-03-28T02:39:53.779Z,99802.94
2023-03-28T02:41:28.976Z,99789.09
2023-03-28T02:43:38.506Z,99800.72
2023-03-28T02:45:24.570Z,99803.25
2023-03-28T02:46:56.141Z,99792.19
2023-03-28T02:48:26.804Z,99808.44
2023-03-28T02:50:02.871Z,99802.25
2023-03-28T02:51:35.182Z,99812.34
2023-03-28T02:53:04.540Z,99809.53
2023-03-28T02:54:36.060Z,99779.88
2023-03-28T02:56:26.412Z,99798.91
2023-03-28T02:58:22.558Z,99802.13
2023-03-28T02:59:49.026Z,99807.16
2023-03-28T03:01:14.878Z,99806.63
2023-03-28T03:02:36.383Z,99800.44
2023-03-28T03:04:00.917Z,99808.16
2023-03-28T03:05:22.428Z,99808.41
2023-03-28T03:06:46.547Z,99804.09
2023-03-28T03:08:09.385Z,99814.31
2023-03-28T03:09:31.652Z,99809.94
2023-03-28T03:10:53.986Z,99815.28
2023-03-28T03:12:16.668Z,99805.63
2023-03-28T03:13:38.874Z,99808.72
2023-03-28T03:15:02.383Z,99812.19
2023-03-28T03:16:54.574Z,99811.25
2023-03-28T03:18:17.080Z,99805.09
2023-03-28T03:19:43.661Z,99818.09
2023-03-28T03:21:06.689Z,99813.75
2023-03-28T03:22:31.655Z,99813.75
2023-03-28T03:23:53.807Z,99802.69
2023-03-28T03:25:19.023Z,99816.81
2023-03-28T03:26:51.702Z,99819.34
2023-03-28T03:28:16.527Z,99825.78
2023-03-28T03:29:39.565Z,99818.66
2023-03-28T03:31:07.487Z,99817.69
2023-03-28T03:32:30.979Z,99818.94
2023-03-28T03:33:57.942Z,99809.28
2023-03-28T03:35:25.147Z,99816.41
2023-03-28T03:36:50.218Z,99831.09
2023-03-28T03:38:12.299Z,99821.72
2023-03-28T03:39:36.174Z,99825.66
2023-03-28T03:40:57.488Z,99829.56
2023-03-28T03:42:20.429Z,99815.56
2023-03-28T03:43:47.563Z,99828.84
2023-03-28T03:45:18.698Z,99825.78
2023-03-28T03:46:41.997Z,99826.06
2023-03-28T03:48:03.813Z,99825.25
2023-03-28T03:49:26.474Z,99822.59
2023-03-28T03:50:48.084Z,99823.81
2023-03-28T03:52:11.907Z,99824.66
2023-03-28T03:53:34.464Z,99827.59
2023-03-28T03:55:02.533Z,99837.00
2023-03-28T03:56:24.930Z,99832.78
2023-03-28T03:57:51.077Z,99836.69
2023-03-28T03:59:14.864Z,99835.00
2023-03-28T04:00:37.766Z,99827.19
2023-03-28T04:02:03.702Z,99833.06
2023-03-28T04:03:35.449Z,99841.03
2023-03-28T04:05:00.030Z,99830.41
2023-03-28T04:06:41.565Z,99832.34
2023-03-28T04:08:09.596Z,99837.00
2023-03-28T04:09:36.070Z,99827.91
2023-03-28T04:10:59.649Z,99847.19
2023-03-28T04:12:23.288Z,99842.31
2023-03-28T04:13:47.924Z,99834.59
2023-03-28T04:15:12.458Z,99842.56
2023-03-28T04:16:40.803Z,99851.38
2023-03-28T04:18:08.322Z,99863.44
2023-03-28T04:19:40.336Z,99855.31
2023-03-28T04:21:04.027Z,99842.03
2023-03-28T04:22:36.057Z,99848.03
2023-03-28T04:24:15.794Z,99865.78
2023-03-28T04:25:44.777Z,99858.13
2023-03-28T04:27:15.961Z,99858.09
2023-03-28T04:28:42.662Z,99869.56
2023-03-28T04:30:08.754Z,99874.59
2023-03-28T04:31:54.441Z,99888.31
2023-03-28T04:33:17.309Z,99895.88
2023-03-28T04:34:46.539Z,99887.59
2023-03-28T04:36:12.513Z,99905.91
2023-03-28T04:37:37.900Z,99903.94
2023-03-28T04:39:04.037Z,99893.28
2023-03-28T04:40:56.755Z,99910.03
2023-03-28T04:42:48.130Z,99910.38
2023-03-28T04:44:16.299Z,99918.47
2023-03-28T04:45:44.064Z,99926.00
2023-03-28T04:47:13.280Z,99912.53
2023-03-28T04:48:35.534Z,99917.66
2023-03-28T04:49:58.584Z,99923.50
2023-03-28T04:51:29.937Z,99913.97
2023-03-28T04:52:53.075Z,99917.41
2023-03-28T04:54:14.899Z,99929.72
2023-03-28T04:55:51.935Z,99928.94
2023-03-28T04:57:26.980Z,99933.19
2023-03-28T04:58:55.362Z,99933.84
2023-03-28T05:00:22.819Z,99947.25
2023-03-28T05:02:18.932Z,99940.03
2023-03-28T05:03:58.100Z,99960.44
2023-03-28T05:05:23.889Z,99944.31
2023-03-28T05:06:46.799Z,99936.97
2023-03-28T05:08:11.756Z,99966.22
2023-03-28T05:09:34.147Z,99966.94
2023-03-28T05:10:58.171Z,99962.88
2023-03-28T05:12:22.287Z,99974.91
2023-03-28T05:13:56.647Z,99960.69
2023-03-28T05:15:25.797Z,99965.84
2023-03-28T05:17:08.330Z,99963.53
2023-03-28T05:19:01.372Z,99955.19
2023-03-28T05:20:43.610Z,99969.59
2023-03-28T05:22:06.868Z,99976.19
2023-03-28T05:23:31.314Z,99970.25
2023-03-28T05:24:55.646Z,99985.66
2023-03-28T05:26:17.741Z,99973.38
2023-03-28T05:27:40.158Z,99986.09
2023-03-28T05:29:02.948Z,100000.66
2023-03-28T05:30:25.668Z,99997.19
2023-03-28T05:31:55.227Z,100000.56
2023-03-28T05:33:40.984Z,100002.28
2023-03-28T05:35:06.035Z,99996.41
2023-03-28T05:37:02.164Z,100013.19
2023-03-28T05:38:39.979Z,100015.25
2023-03-28T05:40:15.599Z,100017.38
2023-03-28T05:41:48.507Z,100009.69
2023-03-28T05:43:11.839Z,100009.94
2023-03-28T05:44:59.912Z,100023.69
2023-03-28T05:46:41.122Z,100031.66
2023-03-28T05:48:06.348Z,100026.56
2023-03-28T05:49:33.810Z,100020.97
2023-03-28T05:50:57.660Z,100037.06
2023-03-28T05:52:20.408Z,100035.97
2023-03-28T05:53:43.415Z,100038.50
2023-03-28T05:55:07.270Z,100038.50
2023-03-28T05:56:32.707Z,100045.94
2023-03-28T05:57:55.287Z,100034.50
2023-03-28T05:59:25.186Z,100040.00
2023-03-28T06:00:51.055Z,100046.72
2023-03-28T06:02:13.403Z,100050.56
2023-03-28T06:03:42.919Z,100054.38
2023-03-28T06:05:05.110Z,100059.31
2023-03-28T06:06:29.098Z,100059.31
2023-03-28T06:07:53.080Z,100055.13
2023-03-28T06:09:15.765Z,100039.59
2023-03-28T06:10:45.596Z,100052.66
2023-03-28T06:12:15.691Z,100052.41
2023-03-28T06:13:44.390Z,100057.84
2023-03-28T06:15:11.977Z,100066.13
2023-03-28T06:16:38.848Z,100068.41
2023-03-28T06:18:01.372Z,100074.28
2023-03-28T06:19:24.045Z,100056.66
2023-03-28T06:21:04.314Z,100061.75
2023-03-28T06:22:28.411Z,100076.63
2023-03-28T06:23:57.035Z,100066.00
2023-03-28T06:25:25.816Z,100086.34
2023-03-28T06:26:48.474Z,100084.19
2023-03-28T06:28:15.227Z,100081.88
2023-03-28T06:29:56.740Z,100092.34
2023-03-28T06:31:19.876Z,100108.91
2023-03-28T06:32:43.057Z,100088.84
2023-03-28T06:34:05.994Z,100091.50
2023-03-28T06:35:29.760Z,100098.63
2023-03-28T06:36:55.071Z,100105.91
2023-03-28T06:38:20.357Z,100099.41
2023-03-28T06:39:46.940Z,100102.22
2023-03-28T06:41:09.523Z,100111.16
2023-03-28T06:42:31.138Z,100118.31
2023-03-28T06:44:15.529Z,100119.41
2023-03-28T06:45:52.027Z,100116.28
2023-03-28T06:47:21.324Z,100115.84
2023-03-28T06:48:46.805Z,100141.22
2023-03-28T06:50:28.760Z,100125.34
2023-03-28T06:55:03.550Z,100126.59
2023-03-28T06:56:52.539Z,100131.25
2023-03-28T06:59:17.204Z,100137.84
2023-03-28T07:06:28.361Z,100153.41
2023-03-28T07:07:54.692Z,100154.06
2023-03-28T07:09:20.207Z,100166.88
2023-03-28T07:10:53.678Z,100157.69
2023-03-28T07:12:18.805Z,100170.03
2023-03-28T07:13:41.464Z,100175.94
2023-03-28T07:15:06.361Z,100169.50
2023-03-28T07:16:28.727Z,100171.31
2023-03-28T07:18:12.882Z,100172.41
2023-03-28T07:19:38.076Z,100172.63
2023-03-28T07:21:10.408Z,100173.06
2023-03-28T07:22:32.688Z,100178.59
2023-03-28T07:24:00.563Z,100185.09
2023-03-28T07:25:37.398Z,100186.09
2023-03-28T07:27:14.076Z,100183.63
2023-03-28T07:30:15.649Z,100177.47
2023-03-28T07:31:39.017Z,100176.50
2023-03-28T07:33:16.236Z,100191.81
2023-03-28T07:34:43.249Z,100207.66
2023-03-28T07:36:28.032Z,100197.69
2023-03-28T07:38:23.085Z,100186.84
2023-03-28T07:39:48.220Z,100206.44
2023-03-28T07:41:14.669Z,100208.34
2023-03-28T07:42:49.812Z,100188.41
2023-03-28T07:44:20.304Z,100209.63
2023-03-28T07:45:49.899Z,100198.25
2023-03-28T07:47:12.591Z,100213.44
2023-03-28T07:48:49.349Z,100202.91
2023-03-28T07:53:14.413Z,100230.88
2023-03-28T07:54:37.490Z,100223.19
2023-03-28T07:56:01.533Z,100215.06
2023-03-28T07:57:50.226Z,100221.47
2023-03-28T07:59:41.202Z,100233.31
2023-03-28T08:01:08.456Z,100244.22
2023-03-28T08:02:43.228Z,100245.56
2023-03-28T08:04:19.208Z,100235.53
2023-03-28T08:06:13.451Z,100251.31
2023-03-28T08:07:46.251Z,100240.69
2023-03-28T08:09:10.087Z,100250.16
2023-03-28T08:10:52.317Z,100238.59
2023-03-28T08:12:15.495Z,100247.84
2023-03-28T08:13:50.809Z,100256.59
2023-03-28T08:15:24.738Z,100253.69
2023-03-28T08:20:14.190Z,100235.00
2023-03-28T08:22:02.898Z,100244.66
2023-03-28T08:23:43.103Z,100244.91
2023-03-28T08:26:18.928Z,100234.34
2023-03-28T08:28:02.216Z,100237.53
2023-03-28T08:29:40.596Z,100238.91
2023-03-28T08:31:18.645Z,100234.03
2023-03-28T08:33:07.121Z,100231.22
2023-03-28T08:34:43.811Z,100227.75
2023-03-28T08:36:29.889Z,100249.09
2023-03-28T08:37:52.709Z,100242.84
2023-03-28T08:39:15.482Z,100261.22
2023-03-28T08:40:47.157Z,100267.72
2023-03-28T08:42:50.426Z,100269.56
2023-03-28T08:44:37.108Z,100251.25
2023-03-28T08:48:46.050Z,100242.50
2023-03-28T08:50:45.085Z,100264.19
2023-03-28T08:52:20.821Z,100263.41
2023-03-28T08:55:03.337Z,100253.81
2023-03-28T08:56:26.093Z,100252.66
2023-03-28T08:58:15.903Z,100249.63
2023-03-28T09:00:03.738Z,100244.78
2023-03-28T09:01:49.096Z,100244.09
2023-03-28T09:05:58.043Z,100289.28
2023-03-28T09:10:02.740Z,100318.78
2023-03-28T09:12:17.619Z,100300.06
2023-03-28T09:14:02.402Z,100308.03
2023-03-28T09:15:43.108Z,100310.41
2023-03-28T09:17:22.802Z,100308.81
2023-03-28T09:19:06.576Z,100299.00
2023-03-28T09:20:46.883Z,100302.22
2023-03-28T09:22:30.256Z,100289.59
2023-03-28T09:24:11.062Z,100289.19
2023-03-28T09:26:01.809Z,100300.41
2023-03-28T09:27:33.939Z,100304.16
2023-03-28T09:29:12.901Z,100300.25
2023-03-28T09:30:38.885Z,100301.25
2023-03-28T09:32:11.211Z,100297.06
2023-03-28T09:33:49.949Z,100290.56
2023-03-28T09:35:22.961Z,100319.06
2023-03-28T09:36:50.605Z,100284.22
2023-03-28T09:38:23.276Z,100332.41
2023-03-28T09:39:54.032Z,100327.19
2023-03-28T09:41:27.367Z,100323.03
2023-03-28T09:43:20.307Z,100317.63
2023-03-28T09:45:35.212Z,100319.25
2023-03-28T09:47:17.226Z,100323.78
2023-03-28T10:01:03.942Z,100324.38
2023-03-28T10:07:39.513Z,100344.66
2023-03-28T10:13:16.000Z,100343.94
2023-03-28T10:14:52.277Z,100336.81
2023-03-28T10:16:38.012Z,100331.00
2023-03-28T10:18:27.162Z,100335.59
2023-03-28T10:20:25.692Z,100324.84
2023-03-28T10:22:03.068Z,100326.19
2023-03-28T10:23:31.237Z,100343.47
2023-03-28T10:28:02.244Z,100338.06
2023-03-28T10:31:55.473Z,100346.84
2023-03-28T10:33:34.713Z,100343.34
2023-03-28T10:35:56.628Z,100336.72
2023-03-28T10:37:43.164Z,100339.50
2023-03-28T10:43:38.476Z,100353.56
2023-03-28T10:49:30.873Z,100366.09
2023-03-28T11:04:29.666Z,100383.09
2023-03-28T11:09:40.240Z,100384.09
2023-03-28T11:12:06.983Z,100384.88
2023-03-28T11:13:59.792Z,100392.13
2023-03-28T11:15:34.751Z,100393.63
2023-03-28T11:18:15.142Z,100405.34
2023-03-28T11:21:14.436Z,100409.13
2023-03-28T11:26:12.933Z,100424.94
2023-03-28T11:28:24.054Z,100434.50
2023-03-28T11:29:58.485Z,100449.34
2023-03-28T11:31:33.704Z,100434.31
2023-03-28T11:33:07.108Z,100425.53
2023-03-28T11:34:42.730Z,100424.38
2023-03-28T11:36:26.345Z,100424.25
2023-03-28T11:39:57.868Z,100429.16
2023-03-28T11:41:42.886Z,100421.22
2023-03-28T11:43:21.439Z,100422.38
2023-03-28T11:44:52.401Z,100418.97
2023-03-28T11:46:22.294Z,100438.44
2023-03-28T11:47:55.794Z,100423.13
2023-03-28T11:49:25.844Z,100440.50
2023-03-28T11:51:02.301Z,100443.19
2023-03-28T11:52:48.088Z,100441.91
2023-03-28T11:54:25.172Z,100453.03
2023-03-28T11:55:58.971Z,100474.38
2023-03-28T11:57:56.164Z,100472.75
2023-03-28T11:59:31.635Z,100487.47
2023-03-28T12:01:14.397Z,100476.66
2023-03-28T12:02:44.248Z,100471.16
2023-03-28T12:04:18.808Z,100485.06
2023-03-28T12:05:48.946Z,100446.50
2023-03-28T12:07:22.796Z,100460.69
2023-03-28T12:08:57.611Z,100464.66
2023-03-28T12:10:28.773Z,100475.00
2023-03-28T12:12:07.111Z,100458.66
2023-03-28T12:13:45.175Z,100446.59
2023-03-28T12:15:19.714Z,100465.63
2023-03-28T12:16:55.736Z,100466.19
2023-03-28T12:19:11.685Z,100441.88
2023-03-28T12:20:59.315Z,100476.03
2023-03-28T12:23:01.435Z,100461.09
2023-03-28T12:24:50.582Z,100471.47
2023-03-28T12:27:18.226Z,100481.69
2023-03-28T12:29:03.133Z,100489.91
2023-03-28T12:32:44.823Z,100509.66
2023-03-28T12:34:22.348Z,100500.69
2023-03-28T12:36:28.149Z,100469.47
2023-03-28T12:38:05.022Z,100486.75
2023-03-28T12:39:49.167Z,100495.06
2023-03-28T12:41:37.904Z,100496.75
2023-03-28T12:43:14.020Z,100485.06
2023-03-28T12:44:44.478Z,100486.31
2023-03-28T12:46:15.206Z,100472.22
2023-03-28T12:47:49.612Z,100487.50
2023-03-28T12:49:19.620Z,100492.00
2023-03-28T12:50:49.829Z,100501.56
2023-03-28T12:52:19.321Z,100495.34
2023-03-28T12:54:55.343Z,100481.84
2023-03-28T12:56:17.109Z,100482.44
2023-03-28T12:57:56.068Z,100491.72
2023-03-28T13:00:07.623Z,100490.53
2023-03-28T13:01:54.938Z,100479.72
2023-03-28T13:26:52.422Z,100494.59
2023-03-28T13:28:31.665Z,100484.09
2023-03-28T13:30:09.544Z,100484.38
2023-03-28T13:31:47.627Z,100488.72
2023-03-28T13:36:06.377Z,100495.53
2023-03-28T13:37:50.465Z,100479.09
2023-03-28T13:39:33.603Z,100496.28
2023-03-28T13:40:59.731Z,100504.88
2023-03-28T13:42:35.199Z,100517.38
2023-03-28T13:44:10.764Z,100515.81
2023-03-28T13:45:54.714Z,100511.91
2023-03-28T13:48:12.404Z,100532.31
2023-03-28T13:49:59.762Z,100524.97
2023-03-28T13:51:29.495Z,100506.84
2023-03-28T13:53:02.391Z,100510.66
2023-03-28T13:54:43.503Z,100517.44
2023-03-28T13:56:22.016Z,100506.56
2023-03-28T13:57:44.220Z,100508.28
2023-03-28T13:59:45.229Z,100525.28
2023-03-28T14:01:26.072Z,100512.84
2023-03-28T14:03:06.140Z,100538.00
2023-03-28T14:04:46.869Z,100506.63
2023-03-28T14:06:27.935Z,100510.13
2023-03-28T14:11:34.535Z,100525.47
2023-03-28T14:13:14.113Z,100507.88
2023-03-28T14:15:00.667Z,100515.16
2023-03-28T14:18:57.461Z,100506.88
2023-03-28T14:20:21.660Z,100526.53
2023-03-28T14:25:59.723Z,100518.16
2023-03-28T14:27:58.987Z,100498.28
2023-03-28T14:30:08.609Z,100499.69
2023-03-28T14:31:44.572Z,100507.25
2023-03-28T14:35:24.317Z,100509.16
2023-03-28T14:37:48.200Z,100511.13
2023-03-28T14:47:40.859Z,100523.28
2023-03-28T14:49:26.586Z,100526.13
2023-03-28T14:50:57.961Z,100518.81
2023-03-28T14:52:43.638Z,100536.53
2023-03-28T14:54:08.580Z,100524.84
2023-03-28T14:55:47.817Z,100536.81
2023-03-28T15:02:35.954Z,100559.50
2023-03-28T15:04:12.648Z,100562.13
2023-03-28T15:06:00.050Z,100560.56
2023-03-28T15:07:38.426Z,100568.81
2023-03-28T15:09:18.269Z,100568.75
2023-03-28T15:11:03.445Z,100557.44
2023-03-28T15:17:46.155Z,100565.59
2023-03-28T15:31:44.607Z,100581.13
2023-03-28T15:34:26.425Z,100570.06
2023-03-28T15:55:53.808Z,100598.72
2023-03-28T15:57:21.917Z,100595.69
2023-03-28T15:58:50.721Z,100602.72
2023-03-28T16:00:58.059Z,100606.09
2023-03-28T16:02:51.978Z,100606.94
2023-03-28T16:10:15.929Z,100598.72
2023-03-28T16:12:32.850Z,100609.97
2023-03-28T16:14:42.878Z,100600.19
2023-03-28T16:16:56.280Z,100615.53
2023-03-28T16:18:55.066Z,100620.84
2023-03-28T16:24:11.440Z,100613.22
2023-03-28T16:41:54.456Z,100648.34
2023-03-28T16:43:30.172Z,100636.59
2023-03-28T16:44:52.111Z,100651.59
2023-03-28T16:46:17.017Z,100654.25
2023-03-28T16:47:38.889Z,100648.09
2023-03-28T16:49:01.813Z,100658.16
2023-03-28T16:50:22.720Z,100659.84
2023-03-28T16:51:44.616Z,100653.66
2023-03-28T16:53:06.706Z,100661.88
2023-03-28T16:54:30.354Z,100663.59
2023-03-28T16:55:53.247Z,100658.63
2023-03-28T16:57:18.747Z,100664.53
2023-03-28T16:58:43.227Z,100667.34
2023-03-28T17:00:07.316Z,100649.56
2023-03-28T17:01:30.654Z,100674.59
2023-03-28T17:02:53.166Z,100670.25
2023-03-28T17:04:15.618Z,100666.84
2023-03-28T17:05:40.356Z,100648.97
2023-03-28T17:07:02.582Z,100667.22
2023-03-28T17:08:25.504Z,100668.06
2023-03-28T17:09:48.512Z,100671.72
2023-03-28T17:11:12.961Z,100674.47
2023-03-28T17:12:35.989Z,100681.50
2023-03-28T17:14:03.257Z,100685.25
2023-03-28T17:15:28.989Z,100677.50
2023-03-28T17:16:54.284Z,100674.25
2023-03-28T17:18:16.501Z,100685.72
2023-03-28T17:19:39.678Z,100687.53
2023-03-28T17:21:08.155Z,100685.00
2023-03-28T17:22:30.525Z,100685.97
2023-03-28T17:23:55.803Z,100689.72
2023-03-28T17:25:20.638Z,100686.56
2023-03-28T17:26:45.068Z,100685.72
2023-03-28T17:28:09.065Z,100690.06
2023-03-28T17:29:34.610Z,100689.34
2023-03-28T17:30:59.737Z,100692.13
2023-03-28T17:32:23.526Z,100689.84
2023-03-28T17:33:47.040Z,100702.28
2023-03-28T17:35:11.998Z,100694.44
2023-03-28T17:36:38.003Z,100694.16
2023-03-28T17:38:01.382Z,100688.13
2023-03-28T17:39:29.772Z,100702.03
2023-03-28T17:40:52.403Z,100708.44
2023-03-28T17:42:15.556Z,100698.97
2023-03-28T17:43:43.908Z,100701.53
2023-03-28T17:45:18.301Z,100687.34
2023-03-28T17:46:50.837Z,100693.75
2023-03-28T17:48:25.869Z,100693.03
2023-03-28T17:50:32.883Z,100707.69
2023-03-28T17:52:04.879Z,100705.38
2023-03-28T17:53:52.390Z,100715.88
2023-03-28T17:55:20.721Z,100698.22
2023-03-28T17:56:45.392Z,100697.59
2023-03-28T17:58:18.920Z,100697.69
2023-03-28T17:59:43.845Z,100709.06
2023-03-28T18:01:12.325Z,100719.25
2023-03-28T18:02:35.906Z,100727.34
2023-03-28T18:04:12.418Z,100722.16
2023-03-28T18:06:16.066Z,100729.38
2023-03-28T18:07:43.366Z,100725.25
2023-03-28T18:09:08.007Z,100738.44
2023-03-28T18:10:34.539Z,100721.59
2023-03-28T18:12:00.123Z,100739.53
2023-03-28T18:13:23.841Z,100735.38
2023-03-28T18:14:50.798Z,100746.63
2023-03-28T18:16:21.037Z,100733.56
2023-03-28T18:17:47.717Z,100728.09
2023-03-28T18:19:22.373Z,100735.97
2023-03-28T18:20:46.165Z,100738.63
2023-03-28T18:22:12.940Z,100741.88
2023-03-28T18:23:38.526Z,100741.88
2023-03-28T18:25:05.440Z,100741.38
2023-03-28T18:26:55.994Z,100732.16
2023-03-28T18:28:22.337Z,100740.53
2023-03-28T18:29:45.297Z,100756.38
2023-03-28T18:31:17.761Z,100756.47
2023-03-28T18:32:56.118Z,100743.03
2023-03-28T18:34:23.945Z,100760.13
2023-03-28T18:36:14.901Z,100748.56
2023-03-28T18:37:38.969Z,100761.19
2023-03-28T18:42:15.407Z,100760.03
2023-03-28T18:43:45.905Z,100757.53
2023-03-28T18:45:09.905Z,100761.22
2023-03-28T18:46:34.847Z,100754.56
2023-03-28T18:48:04.697Z,100763.28
2023-03-28T18:49:55.914Z,100761.69
2023-03-28T18:51:23.443Z,100762.66
2023-03-28T18:52:50.629Z,100774.88
2023-03-28T18:54:15.061Z,100780.19
2023-03-28T18:55:40.444Z,100779.44
2023-03-28T18:57:10.665Z,100776.16
2023-03-28T18:58:37.428Z,100764.16
2023-03-28T19:00:02.590Z,100777.22
2023-03-28T19:01:30.637Z,100772.03
2023-03-28T19:03:12.028Z,100774.78
2023-03-28T19:04:40.083Z,100784.34
2023-03-28T19:06:09.720Z,100784.34
2023-03-28T19:07:32.487Z,100763.88
2023-03-28T19:09:41.111Z,100763.22
2023-03-28T19:11:21.879Z,100771.84
2023-03-28T19:13:16.047Z,100766.75
2023-03-28T19:15:35.566Z,100771.44
2023-03-28T19:17:04.029Z,100767.72
2023-03-28T19:18:44.213Z,100761.03
2023-03-28T19:20:16.820Z,100755.09
2023-03-28T19:21:51.130Z,100765.50
2023-03-28T19:23:18.369Z,100748.31
2023-03-28T19:25:14.784Z,100750.31
2023-03-28T19:26:47.190Z,100761.47
2023-03-28T19:28:18.360Z,100757.34
2023-03-28T19:29:42.476Z,100761.69
2023-03-28T19:31:29.153Z,100755.53
2023-03-28T19:35:27.131Z,100761.06
2023-03-28T19:36:54.585Z,100762.00
2023-03-28T19:38:26.421Z,100756.31
2023-03-28T19:39:53.593Z,100758.00
2023-03-28T19:42:14.446Z,100760.97
2023-03-28T19:43:38.388Z,100776.25
2023-03-28T19:45:11.052Z,100772.84
2023-03-28T19:46:37.940Z,100752.41
2023-03-28T19:48:02.673Z,100784.31
2023-03-28T19:49:28.913Z,100767.88
2023-03-28T19:50:54.304Z,100771.28
2023-03-28T19:52:18.043Z,100783.56
2023-03-28T19:53:42.095Z,100778.41
2023-03-28T19:55:04.622Z,100774.16
2023-03-28T19:56:27.967Z,100781.16
2023-03-28T19:57:53.959Z,100775.97
2023-03-28T19:59:17.040Z,100782.00
2023-03-28T20:00:45.072Z,100778.72
2023-03-28T20:02:08.892Z,100784.78
2023-03-28T20:03:31.741Z,100784.03
2023-03-28T20:04:54.965Z,100775.44
2023-03-28T20:06:21.966Z,100779.78
2023-03-28T20:08:02.557Z,100771.91
2023-03-28T20:09:26.255Z,100756.75
2023-03-28T20:10:51.988Z,100767.81
2023-03-28T20:12:18.605Z,100775.75
2023-03-28T20:13:47.151Z,100766.41
2023-03-28T20:15:12.894Z,100773.31
2023-03-28T20:16:39.020Z,100762.91
2023-03-28T20:18:01.661Z,100770.25
2023-03-28T20:19:26.248Z,100780.66
2023-03-28T20:20:54.292Z,100774.50
2023-03-28T20:22:20.832Z,100768.44
2023-03-28T20:23:44.558Z,100774.72
2023-03-28T20:25:07.432Z,100768.66
2023-03-28T20:26:30.252Z,100765.16
2023-03-28T20:27:53.902Z,100768.75
2023-03-28T20:29:18.214Z,100763.66
2023-03-28T20:30:42.534Z,100759.22
2023-03-28T20:32:07.961Z,100761.13
2023-03-28T20:33:41.842Z,100759.44
2023-03-28T20:35:41.007Z,100754.22
2023-03-28T20:37:21.788Z,100744.03
2023-03-28T20:38:55.337Z,100741.81
2023-03-28T20:40:21.689Z,100753.91
2023-03-28T20:41:45.629Z,100747.13
2023-03-28T20:43:10.219Z,100757.41
2023-03-28T20:44:40.004Z,100755.72
2023-03-28T20:46:05.087Z,100755.81
2023-03-28T20:47:29.191Z,100756.78
2023-03-28T20:48:54.707Z,100747.44
2023-03-28T20:50:17.540Z,100763.03
2023-03-28T20:51:39.908Z,100764.75
2023-03-28T20:53:05.672Z,100748.50
2023-03-28T20:54:28.478Z,100763.03
2023-03-28T20:55:51.150Z,100760.38
2023-03-28T20:57:13.293Z,100757.19
2023-03-28T21:01:22.509Z,100763.69
2023-03-28T21:03:02.231Z,100756.66
2023-03-28T21:05:15.835Z,100760.59
2023-03-28T21:07:54.601Z,100770.16
2023-03-28T21:09:43.878Z,100763.47
2023-03-28T21:11:26.054Z,100755.06
2023-03-28T21:13:01.996Z,100766.97
2023-03-28T21:14:37.747Z,100759.41
2023-03-28T21:16:19.694Z,100760.47
2023-03-28T21:17:50.927Z,100755.59
2023-03-28T21:21:09.352Z,100759.09
2023-03-28T21:23:02.363Z,100763.56
2023-03-28T21:25:06.824Z,100765.44
2023-03-28T21:29:21.179Z,100776.06
2023-03-28T21:31:56.162Z,100768.09
2023-03-28T21:33:17.109Z,100781.88
2023-03-28T21:34:54.398Z,100768.47
2023-03-28T21:36:26.904Z,100768.59